Time;durP1;ratioP1;P1;durP2;ratioP2;P2;SDS_P1;SDS_P2;PMS_P1;PMS_P2;Temp;Humidity;BMP_temperature;BMP_pressure;BME280_temperature;BME280_humidity;BME280_pressure;Samples;Min_cycle;Max_cycle;Signal;HPM_P1;HPM_P2
2022/08/06 00:01:28;;;;;;;4.90;4.40;;;;;;;;;;5110429;27;20067;-72
2022/08/06 00:03:53;;;;;;;5.93;5.35;;;;;;;;;;5116876;27;20047;-72
2022/08/06 00:06:19;;;;;;;5.40;4.93;;;;;;;;;;5120112;27;20038;-72
2022/08/06 00:08:44;;;;;;;6.25;4.63;;;;;;;;;;5119413;27;21012;-72
2022/08/06 00:11:09;;;;;;;4.90;4.40;;;;;;;;;;5116600;27;20117;-70
2022/08/06 00:13:35;;;;;;;5.35;4.95;;;;;;;;;;5108134;27;20034;-75
2022/08/06 00:16:00;;;;;;;5.03;4.60;;;;;;;;;;5106896;27;20195;-71
2022/08/06 00:18:25;;;;;;;6.95;4.80;;;;;;;;;;5115380;27;20038;-71
2022/08/06 00:20:51;;;;;;;5.15;4.72;;;;;;;;;;5118614;27;20113;-71
2022/08/06 00:23:16;;;;;;;5.28;4.88;;;;;;;;;;5119807;27;20034;-72
2022/08/06 00:25:42;;;;;;;5.10;4.68;;;;;;;;;;5118440;27;20035;-72
2022/08/06 00:28:07;;;;;;;4.93;4.50;;;;;;;;;;5109877;27;20384;-73
2022/08/06 00:30:32;;;;;;;5.30;4.90;;;;;;;;;;5110645;27;20437;-73
2022/08/06 00:32:58;;;;;;;4.93;4.53;;;;;;;;;;5118366;27;20438;-72
2022/08/06 00:35:23;;;;;;;4.97;4.57;;;;;;;;;;5114927;27;20030;-72
2022/08/06 00:37:48;;;;;;;4.80;4.45;;;;;;;;;;5112615;27;20481;-71
2022/08/06 00:40:14;;;;;;;4.95;4.45;;;;;;;;;;5118379;27;20492;-70
2022/08/06 00:42:40;;;;;;;5.43;5.03;;;;;;;;;;5112280;27;20039;-71
2022/08/06 00:45:07;;;;;;;5.07;4.68;;;;;;;;;;5114861;27;20019;-70
2022/08/06 00:47:33;;;;;;;4.78;4.15;;;;;;;;;;5118169;27;20070;-71
2022/08/06 00:49:58;;;;;;;5.35;4.88;;;;;;;;;;5119309;27;20817;-71
2022/08/06 00:52:23;;;;;;;5.10;4.60;;;;;;;;;;5119842;27;20490;-71
2022/08/06 00:54:49;;;;;;;5.43;4.95;;;;;;;;;;5117494;27;20101;-72
2022/08/06 00:57:14;;;;;;;4.65;4.30;;;;;;;;;;5113045;27;20038;-70
2022/08/06 00:59:39;;;;;;;5.00;4.60;;;;;;;;;;5108909;27;20102;-71
2022/08/06 01:02:05;;;;;;;4.82;4.45;;;;;;;;;;5118293;27;20171;-73
2022/08/06 01:04:30;;;;;;;4.88;4.50;;;;;;;;;;5117913;27;20039;-71
2022/08/06 01:06:55;;;;;;;4.90;4.50;;;;;;;;;;5119192;27;20027;-70
2022/08/06 01:09:21;;;;;;;6.07;5.57;;;;;;;;;;5118295;27;20031;-71
2022/08/06 01:11:46;;;;;;;5.63;5.15;;;;;;;;;;5116672;27;20145;-71
2022/08/06 01:14:11;;;;;;;5.38;4.93;;;;;;;;;;5106711;27;20445;-71
2022/08/06 01:16:39;;;;;;;5.55;5.05;;;;;;;;;;5117581;27;20772;-73
2022/08/06 01:19:07;;;;;;;5.25;4.85;;;;;;;;;;5117842;27;20030;-71
2022/08/06 01:21:33;;;;;;;5.47;4.97;;;;;;;;;;5117872;27;20035;-71
2022/08/06 01:24:13;;;;;;;5.88;5.25;;;;;;;;;;5109623;27;20023;-71
2022/08/06 01:26:42;;;;;;;5.88;5.25;;;;;;;;;;5120114;27;20114;-73
2022/08/06 01:29:14;;;;;;;7.20;5.40;;;;;;;;;;5104310;27;20148;-71
2022/08/06 01:31:54;;;;;;;6.13;5.63;;;;;;;;;;5114018;27;20031;-71
2022/08/06 01:34:38;;;;;;;5.18;4.72;;;;;;;;;;5117621;27;20023;-72
2022/08/06 01:37:17;;;;;;;5.65;5.25;;;;;;;;;;5117034;27;20031;-72
2022/08/06 01:39:42;;;;;;;;;;;;;;;;;;5108043;27;20015;-71
2022/08/06 01:42:09;;;;;;;5.60;5.17;;;;;;;;;;5117641;27;19919;-72
2022/08/06 01:44:37;;;;;;;5.55;5.05;;;;;;;;;;5106346;27;20354;-71
2022/08/06 01:47:11;;;;;;;10.27;4.95;;;;;;;;;;5116719;27;20105;-73
2022/08/06 01:49:37;;;;;;;5.45;5.03;;;;;;;;;;5116049;27;20069;-72
2022/08/06 01:52:04;;;;;;;5.35;4.95;;;;;;;;;;5116972;27;20031;-72
2022/08/06 01:54:30;;;;;;;5.15;4.75;;;;;;;;;;5117485;27;20050;-72
2022/08/06 01:56:57;;;;;;;5.32;4.88;;;;;;;;;;5116574;27;20027;-71
2022/08/06 01:59:25;;;;;;;5.50;5.00;;;;;;;;;;5119282;27;20023;-71
2022/08/06 02:01:53;;;;;;;5.82;5.22;;;;;;;;;;5105962;27;20502;-73
2022/08/06 02:04:20;;;;;;;5.13;4.70;;;;;;;;;;5112618;27;20023;-71
2022/08/06 02:06:46;;;;;;;5.30;4.90;;;;;;;;;;5117552;27;20026;-72
2022/08/06 02:09:14;;;;;;;5.40;5.00;;;;;;;;;;5117958;27;20042;-70
2022/08/06 02:11:41;;;;;;;5.97;5.38;;;;;;;;;;5115744;27;20438;-71
2022/08/06 02:14:07;;;;;;;5.43;4.93;;;;;;;;;;5117734;27;20062;-73
2022/08/06 02:16:37;;;;;;;5.70;5.18;;;;;;;;;;5117369;27;20102;-72
2022/08/06 02:19:03;;;;;;;6.07;5.57;;;;;;;;;;5106359;27;20114;-71
2022/08/06 02:21:30;;;;;;;5.88;5.43;;;;;;;;;;5117984;27;20031;-71
2022/08/06 02:23:56;;;;;;;6.05;5.55;;;;;;;;;;5116615;27;20019;-71
2022/08/06 02:26:22;;;;;;;6.15;5.50;;;;;;;;;;5116746;27;20504;-71
2022/08/06 02:28:48;;;;;;;5.40;5.00;;;;;;;;;;5105321;27;20039;-72
2022/08/06 02:31:14;;;;;;;8.90;5.97;;;;;;;;;;5117347;27;20080;-72
2022/08/06 02:33:39;;;;;;;5.90;5.40;;;;;;;;;;5116352;27;20539;-72
2022/08/06 02:36:05;;;;;;;6.18;5.60;;;;;;;;;;5108087;27;20027;-72
2022/08/06 02:38:50;;;;;;;5.07;4.68;;;;;;;;;;5115801;27;20346;-72
2022/08/06 02:41:18;;;;;;;5.43;5.03;;;;;;;;;;5105172;27;20043;-72
2022/08/06 02:43:51;;;;;;;6.25;5.75;;;;;;;;;;5116171;27;20015;-72
2022/08/06 02:46:28;;;;;;;5.68;5.28;;;;;;;;;;5117128;27;20442;-73
2022/08/06 02:49:03;;;;;;;5.63;5.22;;;;;;;;;;5114052;28;20037;-72
2022/08/06 02:51:32;;;;;;;6.05;5.45;;;;;;;;;;5107171;28;20066;-71
2022/08/06 02:54:09;;;;;;;6.10;5.60;;;;;;;;;;5115469;28;20107;-71
2022/08/06 02:56:37;;;;;;;6.07;5.50;;;;;;;;;;5115833;28;20039;-70
2022/08/06 02:59:03;;;;;;;5.78;5.28;;;;;;;;;;5110754;28;20108;-72
2022/08/06 03:01:33;;;;;;;6.10;5.43;;;;;;;;;;5113866;28;20447;-70
2022/08/06 03:03:59;;;;;;;8.23;5.43;;;;;;;;;;5116586;28;20071;-71
2022/08/06 03:06:25;;;;;;;5.40;5.00;;;;;;;;;;5116854;28;20020;-70
2022/08/06 03:08:52;;;;;;;6.38;5.88;;;;;;;;;;5116069;28;20114;-71
2022/08/06 03:11:18;;;;;;;6.25;5.75;;;;;;;;;;5115904;28;20019;-72
2022/08/06 03:13:45;;;;;;;6.38;5.78;;;;;;;;;;5111076;28;20043;-73
2022/08/06 03:16:10;;;;;;;6.32;5.65;;;;;;;;;;5107978;28;20339;-73
2022/08/06 03:18:37;;;;;;;5.40;5.00;;;;;;;;;;5118068;27;20023;-71
2022/08/06 03:21:03;;;;;;;6.05;5.55;;;;;;;;;;5100523;27;20449;-71
2022/08/06 03:23:29;;;;;;;6.28;5.68;;;;;;;;;;5118703;27;20149;-71
2022/08/06 03:25:55;;;;;;;6.25;5.65;;;;;;;;;;5116908;27;20027;-73
2022/08/06 03:28:21;;;;;;;6.15;5.57;;;;;;;;;;5120830;27;20331;-71
2022/08/06 03:30:46;;;;;;;6.50;5.85;;;;;;;;;;5118160;27;20020;-71
2022/08/06 03:33:13;;;;;;;5.78;5.15;;;;;;;;;;5107271;27;20023;-71
2022/08/06 03:35:39;;;;;;;6.10;5.60;;;;;;;;;;5109614;27;20030;-71
2022/08/06 03:38:07;;;;;;;6.05;5.57;;;;;;;;;;5119822;27;20031;-71
2022/08/06 03:40:32;;;;;;;6.35;5.75;;;;;;;;;;5121389;27;20051;-71
2022/08/06 03:42:58;;;;;;;6.03;5.43;;;;;;;;;;5119075;27;20042;-71
2022/08/06 03:45:25;;;;;;;6.20;5.55;;;;;;;;;;5102262;27;20339;-71
2022/08/06 03:47:53;;;;;;;7.40;6.05;;;;;;;;;;5092103;27;20591;-72
2022/08/06 03:50:20;;;;;;;5.95;5.50;;;;;;;;;;5120314;27;20425;-70
2022/08/06 03:52:47;;;;;;;6.28;5.88;;;;;;;;;;5120464;27;20027;-71
2022/08/06 03:55:15;;;;;;;6.30;5.70;;;;;;;;;;5119540;27;20489;-72
2022/08/06 03:57:42;;;;;;;6.40;5.35;;;;;;;;;;5118054;27;20034;-70
2022/08/06 04:00:09;;;;;;;9.25;5.72;;;;;;;;;;5108729;27;20030;-70
2022/08/06 04:02:37;;;;;;;8.00;5.88;;;;;;;;;;5117384;27;20027;-70
2022/08/06 04:05:02;;;;;;;6.18;5.57;;;;;;;;;;5112558;27;20050;-72
2022/08/06 04:07:29;;;;;;;5.63;5.20;;;;;;;;;;5120019;27;20058;-70
2022/08/06 04:09:55;;;;;;;5.55;5.05;;;;;;;;;;5119631;27;20030;-70
2022/08/06 04:12:21;;;;;;;6.75;6.25;;;;;;;;;;5120052;27;20035;-70
2022/08/06 04:14:46;;;;;;;6.40;5.80;;;;;;;;;;5120812;27;20019;-72
2022/08/06 04:17:12;;;;;;;6.20;5.70;;;;;;;;;;5116030;27;20026;-72
2022/08/06 04:19:38;;;;;;;5.90;5.40;;;;;;;;;;5110495;27;20023;-71
2022/08/06 04:22:03;;;;;;;6.05;5.55;;;;;;;;;;5116324;27;20035;-72
2022/08/06 04:24:28;;;;;;;5.10;4.70;;;;;;;;;;5119034;27;20171;-72
2022/08/06 04:26:55;;;;;;;5.32;4.82;;;;;;;;;;5120430;27;20073;-72
2022/08/06 04:29:21;;;;;;;5.70;5.20;;;;;;;;;;5118457;27;20016;-72
2022/08/06 04:31:50;;;;;;;5.55;5.15;;;;;;;;;;5109547;27;20039;-72
2022/08/06 04:34:18;;;;;;;6.77;6.20;;;;;;;;;;5096308;27;20038;-72
2022/08/06 04:36:44;;;;;;;6.60;6.10;;;;;;;;;;5092430;27;20042;-73
2022/08/06 04:39:09;;;;;;;6.22;5.72;;;;;;;;;;5094850;27;20027;-71
2022/08/06 04:41:35;;;;;;;5.70;5.20;;;;;;;;;;5098277;27;20100;-71
2022/08/06 04:44:00;;;;;;;5.38;4.97;;;;;;;;;;5104735;27;20019;-71
2022/08/06 04:46:26;;;;;;;6.85;6.28;;;;;;;;;;5112605;27;20395;-71
2022/08/06 04:48:51;;;;;;;6.72;6.13;;;;;;;;;;5098487;27;20051;-72
2022/08/06 04:51:16;;;;;;;6.50;6.00;;;;;;;;;;5097084;27;20031;-71
2022/08/06 04:53:42;;;;;;;6.90;6.35;;;;;;;;;;5099391;27;20023;-73
2022/08/06 04:56:08;;;;;;;7.10;5.57;;;;;;;;;;5095753;27;20080;-71
2022/08/06 04:58:33;;;;;;;6.72;6.00;;;;;;;;;;5098507;27;20031;-71
2022/08/06 05:00:59;;;;;;;6.10;5.60;;;;;;;;;;5100027;27;20027;-71
2022/08/06 05:03:25;;;;;;;5.90;5.40;;;;;;;;;;5097316;27;20035;-71
2022/08/06 05:06:10;;;;;;;11.23;5.47;;;;;;;;;;5083738;27;20100;-73
2022/08/06 05:08:36;;;;;;;6.63;5.47;;;;;;;;;;5102331;27;20076;-70
2022/08/06 05:11:05;;;;;;;7.55;6.05;;;;;;;;;;5104366;27;20028;-71
2022/08/06 05:13:34;;;;;;;6.43;5.63;;;;;;;;;;5094925;27;20034;-71
2022/08/06 05:16:02;;;;;;;6.65;5.93;;;;;;;;;;5093047;27;20077;-70
2022/08/06 05:18:34;;;;;;;7.90;6.13;;;;;;;;;;5089344;27;21367;-71
2022/08/06 05:21:00;;;;;;;6.47;5.97;;;;;;;;;;5095212;27;20790;-70
2022/08/06 05:23:27;;;;;;;7.07;5.80;;;;;;;;;;5097248;27;20030;-70
2022/08/06 05:25:53;;;;;;;6.30;5.80;;;;;;;;;;5095865;27;20023;-73
2022/08/06 05:28:18;;;;;;;6.63;5.60;;;;;;;;;;5095808;27;20419;-71
2022/08/06 05:30:45;;;;;;;6.55;5.90;;;;;;;;;;5094045;27;20069;-73
2022/08/06 05:33:11;;;;;;;5.90;5.38;;;;;;;;;;5097641;27;20026;-71
2022/08/06 05:35:36;;;;;;;5.57;5.18;;;;;;;;;;5094827;27;20024;-71
2022/08/06 05:38:01;;;;;;;6.47;5.90;;;;;;;;;;5100238;27;20030;-71
2022/08/06 05:40:33;;;;;;;8.30;7.50;;;;;;;;;;5117242;27;20043;-71
2022/08/06 05:42:59;;;;;;;8.07;7.15;;;;;;;;;;5114468;27;20150;-70
2022/08/06 05:45:24;;;;;;;8.40;7.40;;;;;;;;;;5117447;27;20874;-71
2022/08/06 05:47:49;;;;;;;7.82;7.13;;;;;;;;;;5118069;27;20030;-71
2022/08/06 05:50:17;;;;;;;11.75;8.32;;;;;;;;;;5117729;27;20037;-71
2022/08/06 05:52:47;;;;;;;7.53;6.70;;;;;;;;;;5116425;27;20023;-73
2022/08/06 05:55:23;;;;;;;6.00;5.50;;;;;;;;;;5118727;27;20437;-73
2022/08/06 05:58:10;;;;;;;6.30;5.80;;;;;;;;;;5114576;27;20038;-72
2022/08/06 06:00:36;;;;;;;6.07;5.45;;;;;;;;;;5115923;27;21495;-73
2022/08/06 06:03:03;;;;;;;7.03;6.35;;;;;;;;;;5111139;27;20034;-73
2022/08/06 06:05:30;;;;;;;5.75;5.25;;;;;;;;;;5110131;27;20022;-74
2022/08/06 06:07:55;;;;;;;5.63;5.22;;;;;;;;;;5098588;27;20406;-71
2022/08/06 06:10:22;;;;;;;6.68;6.00;;;;;;;;;;5118296;27;20067;-72
2022/08/06 06:12:48;;;;;;;6.72;6.22;;;;;;;;;;5116454;27;20031;-76
2022/08/06 06:15:14;;;;;;;7.03;5.53;;;;;;;;;;5111658;27;20064;-73
2022/08/06 06:17:52;;;;;;;6.38;5.78;;;;;;;;;;5118337;27;20019;-74
2022/08/06 06:20:36;;;;;;;7.40;5.80;;;;;;;;;;5116906;27;20450;-73
2022/08/06 06:23:07;;;;;;;8.52;5.88;;;;;;;;;;5115837;27;20051;-76
2022/08/06 06:25:35;;;;;;;7.78;5.20;;;;;;;;;;5102698;27;20114;-72
2022/08/06 06:28:09;;;;;;;6.15;5.55;;;;;;;;;;5096659;27;20031;-75
2022/08/06 06:30:40;;;;;;;6.78;5.50;;;;;;;;;;5099995;27;20027;-73
2022/08/06 06:33:14;;;;;;;5.07;4.60;;;;;;;;;;5114483;27;20055;-74
2022/08/06 06:35:48;;;;;;;5.30;4.90;;;;;;;;;;5111352;27;20026;-73
2022/08/06 06:38:36;;;;;;;6.13;4.95;;;;;;;;;;5115944;27;20055;-71
2022/08/06 06:41:30;;;;;;;5.10;4.50;;;;;;;;;;5118484;27;20082;-71
2022/08/06 06:44:02;;;;;;;5.53;4.38;;;;;;;;;;5036864;28;20033;-70
2022/08/06 06:46:39;;;;;;;5.22;4.38;;;;;;;;;;5039028;28;20037;-71
2022/08/06 06:49:11;;;;;;;5.15;4.63;;;;;;;;;;5037744;28;20053;-72
2022/08/06 06:51:46;;;;;;;5.53;5.03;;;;;;;;;;5022033;28;20119;-71
2022/08/06 06:54:16;;;;;;;6.05;5.45;;;;;;;;;;5033802;28;20178;-72
2022/08/06 06:56:43;;;;;;;4.95;4.47;;;;;;;;;;5036169;28;20040;-73
2022/08/06 06:59:12;;;;;;;6.57;6.07;;;;;;;;;;5037711;28;20048;-74
2022/08/06 07:01:38;;;;;;;6.22;5.20;;;;;;;;;;5028618;28;20593;-72
2022/08/06 07:04:08;;;;;;;6.75;5.50;;;;;;;;;;5034028;28;20874;-72
2022/08/06 07:06:35;;;;;;;6.30;5.70;;;;;;;;;;5032836;28;20044;-74
2022/08/06 07:09:00;;;;;;;5.35;4.95;;;;;;;;;;5030718;28;20075;-73
2022/08/06 07:11:27;;;;;;;6.57;5.72;;;;;;;;;;5037573;28;20061;-74
2022/08/06 07:13:54;;;;;;;6.72;5.63;;;;;;;;;;5036596;28;20075;-72
2022/08/06 07:16:21;;;;;;;7.75;5.35;;;;;;;;;;5039379;28;20366;-72
2022/08/06 07:18:47;;;;;;;6.20;5.65;;;;;;;;;;5037700;28;20414;-71
2022/08/06 07:21:16;;;;;;;5.88;5.38;;;;;;;;;;5104729;28;20039;-73
2022/08/06 07:23:45;;;;;;;5.65;5.07;;;;;;;;;;5116212;28;20020;-73
2022/08/06 07:26:12;;;;;;;6.20;5.35;;;;;;;;;;5115767;28;20026;-72
2022/08/06 07:28:38;;;;;;;5.80;5.18;;;;;;;;;;5117889;28;20019;-75
2022/08/06 07:31:05;;;;;;;5.00;4.50;;;;;;;;;;5116740;28;20132;-75
2022/08/06 07:33:31;;;;;;;5.18;4.43;;;;;;;;;;5114951;28;20054;-73
2022/08/06 07:35:57;;;;;;;5.35;4.85;;;;;;;;;;5116942;28;20055;-72
2022/08/06 07:38:24;;;;;;;5.15;4.18;;;;;;;;;;5118153;28;20458;-75
2022/08/06 07:40:54;;;;;;;6.85;5.07;;;;;;;;;;5115196;28;20051;-75
2022/08/06 07:43:21;;;;;;;5.40;4.65;;;;;;;;;;5117023;28;20407;-76
2022/08/06 07:45:48;;;;;;;12.27;4.25;;;;;;;;;;5116321;28;20485;-72
2022/08/06 07:48:15;;;;;;;5.53;4.22;;;;;;;;;;5117982;28;20110;-72
2022/08/06 07:50:44;;;;;;;5.13;4.60;;;;;;;;;;5120297;28;20023;-73
2022/08/06 07:53:10;;;;;;;4.65;4.32;;;;;;;;;;5116932;28;20084;-76
2022/08/06 07:55:36;;;;;;;6.57;4.18;;;;;;;;;;5117388;28;20027;-73
2022/08/06 07:58:03;;;;;;;5.00;4.50;;;;;;;;;;5116228;28;20502;-72
2022/08/06 08:00:28;;;;;;;4.13;3.78;;;;;;;;;;5114666;28;20035;-72
2022/08/06 08:08:24;;;;;;;4.57;4.10;;;;;;;;;;5117054;27;20034;-75
2022/08/06 08:10:50;;;;;;;4.13;3.80;;;;;;;;;;5119299;27;20030;-73
2022/08/06 08:13:18;;;;;;;3.70;3.50;;;;;;;;;;5120337;27;20023;-72
2022/08/06 08:15:44;;;;;;;3.92;3.63;;;;;;;;;;5120754;27;20095;-72
2022/08/06 08:18:09;;;;;;;4.60;3.05;;;;;;;;;;5119102;27;20463;-72
2022/08/06 08:20:37;;;;;;;5.25;3.55;;;;;;;;;;5118367;27;20043;-74
2022/08/06 08:23:04;;;;;;;3.50;3.20;;;;;;;;;;5119040;27;20357;-73
2022/08/06 08:25:29;;;;;;;2.53;2.33;;;;;;;;;;5120441;27;20176;-73
2022/08/06 08:27:55;;;;;;;3.13;2.75;;;;;;;;;;5119470;27;20477;-74
2022/08/06 08:30:20;;;;;;;3.40;3.10;;;;;;;;;;5121112;27;20453;-72
2022/08/06 08:32:45;;;;;;;3.40;3.10;;;;;;;;;;5120074;27;20128;-73
2022/08/06 08:35:11;;;;;;;2.92;2.70;;;;;;;;;;5109711;27;20106;-72
2022/08/06 08:37:36;;;;;;;3.85;3.30;;;;;;;;;;5098381;27;20031;-74
2022/08/06 08:40:03;;;;;;;3.42;3.22;;;;;;;;;;5112266;27;20031;-74
2022/08/06 08:42:43;;;;;;;3.45;3.17;;;;;;;;;;5117407;27;20030;-74
2022/08/06 08:45:09;;;;;;;3.03;2.83;;;;;;;;;;5103942;27;20466;-73
2022/08/06 08:47:37;;;;;;;3.25;2.95;;;;;;;;;;5111126;27;20118;-75
2022/08/06 08:50:03;;;;;;;3.80;2.83;;;;;;;;;;5101641;27;20031;-72
2022/08/06 08:52:32;;;;;;;2.80;2.60;;;;;;;;;;5094624;27;20027;-74
2022/08/06 08:55:00;;;;;;;3.33;2.72;;;;;;;;;;5100594;27;20349;-74
2022/08/06 08:57:26;;;;;;;6.85;2.88;;;;;;;;;;5096239;27;20049;-73
2022/08/06 08:59:51;;;;;;;2.78;2.58;;;;;;;;;;5100018;27;20442;-74
2022/08/06 09:02:17;;;;;;;3.22;2.63;;;;;;;;;;5098568;27;20031;-76
2022/08/06 09:04:42;;;;;;;4.38;3.05;;;;;;;;;;5098591;27;20066;-74
2022/08/06 09:07:08;;;;;;;3.17;2.90;;;;;;;;;;5098008;27;20015;-74
2022/08/06 09:09:34;;;;;;;3.10;2.80;;;;;;;;;;5094019;27;20030;-74
2022/08/06 09:12:00;;;;;;;3.92;2.85;;;;;;;;;;5108456;27;20114;-76
2022/08/06 09:14:25;;;;;;;2.90;2.60;;;;;;;;;;5097948;27;20047;-75
2022/08/06 09:16:50;;;;;;;2.72;2.53;;;;;;;;;;5096351;27;20039;-76
2022/08/06 09:19:16;;;;;;;2.83;2.63;;;;;;;;;;5121485;27;20627;-76
2022/08/06 09:21:42;;;;;;;2.80;2.60;;;;;;;;;;5119916;27;20130;-76
2022/08/06 09:24:08;;;;;;;3.00;2.80;;;;;;;;;;5120547;27;20085;-74
2022/08/06 09:26:34;;;;;;;2.80;2.60;;;;;;;;;;5121580;27;20055;-75
2022/08/06 09:28:59;;;;;;;3.25;2.92;;;;;;;;;;5116986;27;20031;-75
2022/08/06 09:31:24;;;;;;;4.60;2.58;;;;;;;;;;5119268;27;20027;-76
2022/08/06 09:33:54;;;;;;;3.13;2.72;;;;;;;;;;5119677;27;20059;-77
2022/08/06 09:36:19;;;;;;;3.20;3.00;;;;;;;;;;5116154;27;20433;-75
2022/08/06 09:38:47;;;;;;;4.32;2.92;;;;;;;;;;5101630;27;20024;-75
2022/08/06 09:41:12;;;;;;;2.97;2.70;;;;;;;;;;5101198;27;20124;-77
2022/08/06 09:43:38;;;;;;;6.43;3.13;;;;;;;;;;5118245;27;20449;-76
2022/08/06 09:46:04;;;;;;;3.53;3.22;;;;;;;;;;5120174;27;20464;-75
2022/08/06 09:48:29;;;;;;;2.88;2.67;;;;;;;;;;5105002;27;20116;-76
2022/08/06 09:50:54;;;;;;;4.40;2.80;;;;;;;;;;5115253;27;20023;-75
2022/08/06 09:53:22;;;;;;;3.28;2.83;;;;;;;;;;5118506;27;20346;-75
2022/08/06 09:55:51;;;;;;;2.40;2.28;;;;;;;;;;5106880;27;20042;-75
2022/08/06 09:58:34;;;;;;;3.08;2.88;;;;;;;;;;5117876;27;20092;-75
2022/08/06 10:01:13;;;;;;;3.10;2.90;;;;;;;;;;5111931;27;20027;-77
2022/08/06 10:03:39;;;;;;;6.43;3.08;;;;;;;;;;5118884;27;20032;-75
2022/08/06 10:06:05;;;;;;;2.90;2.70;;;;;;;;;;5110479;27;20027;-77
2022/08/06 10:08:31;;;;;;;2.65;2.45;;;;;;;;;;5097170;27;20349;-75
2022/08/06 10:11:02;;;;;;;2.90;2.70;;;;;;;;;;5092720;27;20744;-75
2022/08/06 10:13:28;;;;;;;3.22;2.92;;;;;;;;;;5105256;27;20087;-76
2022/08/06 10:15:54;;;;;;;2.65;2.20;;;;;;;;;;5095927;27;20024;-75
2022/08/06 10:18:28;;;;;;;2.67;2.47;;;;;;;;;;5104001;27;20027;-76
2022/08/06 10:21:04;;;;;;;2.95;2.75;;;;;;;;;;5115731;27;20027;-77
2022/08/06 10:23:35;;;;;;;3.55;2.13;;;;;;;;;;5100460;27;20435;-75
2022/08/06 10:26:02;;;;;;;2.78;2.40;;;;;;;;;;5103348;27;20028;-76
2022/08/06 10:28:29;;;;;;;2.38;2.28;;;;;;;;;;5091581;27;20042;-77
2022/08/06 10:30:55;;;;;;;2.55;2.35;;;;;;;;;;5092784;27;20678;-75
2022/08/06 10:33:22;;;;;;;2.20;2.10;;;;;;;;;;5093191;27;20023;-75
2022/08/06 10:35:48;;;;;;;2.58;2.38;;;;;;;;;;5091126;27;20464;-75
2022/08/06 10:38:16;;;;;;;2.70;2.50;;;;;;;;;;5094442;27;20046;-75
2022/08/06 10:40:41;;;;;;;;;;;;;;;;;;5103620;27;20047;-75
2022/08/06 10:43:08;;;;;;;2.83;2.63;;;;;;;;;;5104813;27;19987;-75
2022/08/06 10:45:34;;;;;;;9.32;3.08;;;;;;;;;;5101234;27;20354;-74
2022/08/06 10:47:59;;;;;;;3.95;2.65;;;;;;;;;;5100677;27;20460;-76
2022/08/06 10:50:25;;;;;;;3.22;2.92;;;;;;;;;;5102863;27;20023;-74
2022/08/06 10:52:50;;;;;;;3.70;3.00;;;;;;;;;;5103529;28;20184;-75
2022/08/06 10:55:16;;;;;;;3.13;2.92;;;;;;;;;;5097740;28;20029;-75
2022/08/06 10:57:42;;;;;;;5.38;3.63;;;;;;;;;;5095166;28;20020;-76
2022/08/06 11:00:08;;;;;;;3.55;3.25;;;;;;;;;;5089677;28;20046;-75
2022/08/06 11:02:43;;;;;;;4.43;2.70;;;;;;;;;;5091108;28;20040;-78
2022/08/06 11:05:11;;;;;;;2.92;2.67;;;;;;;;;;5095055;28;20362;-76
2022/08/06 11:07:36;;;;;;;;;;;;;;;;;;5091492;28;20028;-75
2022/08/06 11:10:21;;;;;;;3.30;2.63;;;;;;;;;;5090581;28;19918;-74
2022/08/06 11:12:49;;;;;;;3.00;2.80;;;;;;;;;;5093828;28;20023;-75
2022/08/06 11:15:14;;;;;;;7.28;3.33;;;;;;;;;;5091443;28;20498;-77
2022/08/06 11:17:44;;;;;;;4.18;3.63;;;;;;;;;;5091919;28;20058;-74
2022/08/06 11:20:29;;;;;;;3.38;3.03;;;;;;;;;;5093262;28;20038;-75
2022/08/06 11:22:55;;;;;;;2.60;2.50;;;;;;;;;;5097146;28;20069;-75
2022/08/06 11:25:37;;;;;;;3.90;3.08;;;;;;;;;;5104653;28;20035;-75
2022/08/06 11:28:04;;;;;;;2.72;2.53;;;;;;;;;;5093469;28;20031;-75
2022/08/06 11:30:38;;;;;;;2.60;2.10;;;;;;;;;;5089247;28;20050;-74
2022/08/06 11:33:04;;;;;;;2.22;2.10;;;;;;;;;;5092725;28;20076;-77
2022/08/06 11:35:32;;;;;;;4.03;2.47;;;;;;;;;;5091349;28;20094;-75
2022/08/06 11:37:58;;;;;;;2.40;2.30;;;;;;;;;;5089521;28;20019;-74
2022/08/06 11:40:24;;;;;;;3.50;2.75;;;;;;;;;;5090605;27;20039;-75
2022/08/06 11:42:49;;;;;;;3.33;2.65;;;;;;;;;;5094345;27;20824;-75
2022/08/06 11:45:14;;;;;;;2.60;2.40;;;;;;;;;;5094747;27;20027;-75
2022/08/06 11:47:58;;;;;;;7.57;6.82;;;;;;;;;;5094408;27;20023;-76
2022/08/06 11:50:23;;;;;;;9.90;8.93;;;;;;;;;;5092075;27;20075;-75
2022/08/06 11:52:49;;;;;;;5.80;5.30;;;;;;;;;;5103544;27;20450;-75
2022/08/06 11:55:15;;;;;;;7.23;3.03;;;;;;;;;;5121603;27;20027;-75
2022/08/06 11:57:40;;;;;;;2.90;2.70;;;;;;;;;;5118501;27;20268;-76
2022/08/06 12:00:13;;;;;;;5.97;2.97;;;;;;;;;;5107404;27;20027;-76
2022/08/06 12:02:41;;;;;;;2.78;2.58;;;;;;;;;;5111477;27;20034;-75
2022/08/06 12:05:27;;;;;;;6.05;2.63;;;;;;;;;;5121105;27;20042;-76
2022/08/06 12:08:14;;;;;;;6.57;2.58;;;;;;;;;;5105733;27;20466;-72
2022/08/06 12:10:39;;;;;;;2.70;2.55;;;;;;;;;;5101197;27;20027;-75
2022/08/06 12:13:25;;;;;;;2.85;2.63;;;;;;;;;;5111105;27;20038;-74
2022/08/06 12:15:51;;;;;;;2.80;2.60;;;;;;;;;;5109718;27;20428;-75
2022/08/06 12:18:16;;;;;;;2.47;2.30;;;;;;;;;;5100298;27;20080;-76
2022/08/06 12:20:42;;;;;;;2.90;2.70;;;;;;;;;;5118183;27;20495;-75
2022/08/06 12:23:09;;;;;;;2.60;2.40;;;;;;;;;;5120612;27;20027;-75
2022/08/06 12:25:36;;;;;;;2.63;2.38;;;;;;;;;;5122285;27;20022;-75
2022/08/06 12:28:02;;;;;;;3.05;2.70;;;;;;;;;;5119280;27;20034;-75
2022/08/06 12:30:39;;;;;;;2.63;2.42;;;;;;;;;;5122549;27;20342;-74
2022/08/06 12:33:06;;;;;;;2.33;2.22;;;;;;;;;;5117929;27;20043;-74
2022/08/06 12:35:31;;;;;;;2.90;2.70;;;;;;;;;;5119418;27;20076;-75
2022/08/06 12:37:57;;;;;;;2.80;2.60;;;;;;;;;;5119645;27;20019;-74
2022/08/06 12:40:28;;;;;;;2.88;2.58;;;;;;;;;;5114409;27;20067;-75
2022/08/06 12:42:59;;;;;;;3.53;3.03;;;;;;;;;;5111174;27;20038;-75
2022/08/06 12:45:25;;;;;;;2.80;2.60;;;;;;;;;;5105968;27;20027;-77
2022/08/06 12:47:56;;;;;;;3.22;2.90;;;;;;;;;;5114677;27;20042;-75
2022/08/06 12:50:22;;;;;;;3.13;2.83;;;;;;;;;;5095532;27;20035;-76
2022/08/06 12:53:03;;;;;;;3.92;2.55;;;;;;;;;;5122468;27;20349;-75
2022/08/06 12:55:28;;;;;;;3.25;2.78;;;;;;;;;;5118920;27;20023;-75
2022/08/06 12:57:54;;;;;;;2.80;2.60;;;;;;;;;;5118635;27;20035;-74
2022/08/06 13:00:20;;;;;;;3.28;3.08;;;;;;;;;;5120904;27;20473;-75
2022/08/06 13:02:46;;;;;;;2.88;2.65;;;;;;;;;;5114951;27;20130;-75
2022/08/06 13:05:13;;;;;;;2.90;2.70;;;;;;;;;;5110201;27;20044;-75
2022/08/06 13:07:38;;;;;;;2.85;2.60;;;;;;;;;;5102915;27;20038;-74
2022/08/06 13:10:08;;;;;;;5.20;3.03;;;;;;;;;;5095964;27;20024;-76
2022/08/06 13:12:33;;;;;;;2.60;2.40;;;;;;;;;;5099529;27;20036;-74
2022/08/06 13:14:59;;;;;;;4.75;2.35;;;;;;;;;;5106022;27;20366;-76
2022/08/06 13:17:26;;;;;;;4.57;3.00;;;;;;;;;;5114516;27;20027;-75
2022/08/06 13:19:55;;;;;;;2.40;2.30;;;;;;;;;;5121160;27;20036;-75
2022/08/06 13:22:21;;;;;;;3.30;3.00;;;;;;;;;;5118304;27;20754;-77
2022/08/06 13:24:47;;;;;;;4.35;2.88;;;;;;;;;;5117481;27;20438;-76
2022/08/06 13:27:12;;;;;;;2.90;2.70;;;;;;;;;;5063788;27;20080;-74
2022/08/06 13:29:57;;;;;;;7.13;2.78;;;;;;;;;;5037812;28;20468;-77
2022/08/06 13:32:25;;;;;;;3.60;2.95;;;;;;;;;;5039874;28;20028;-74
2022/08/06 13:34:58;;;;;;;3.20;3.00;;;;;;;;;;5039597;28;20040;-75
2022/08/06 13:37:43;;;;;;;2.90;2.70;;;;;;;;;;5053183;28;20020;-75
2022/08/06 13:40:09;;;;;;;2.72;2.53;;;;;;;;;;5055737;28;20028;-75
2022/08/06 13:42:47;;;;;;;3.00;2.72;;;;;;;;;;5046779;28;20032;-75
2022/08/06 13:45:19;;;;;;;7.88;2.60;;;;;;;;;;5046793;28;20050;-78
2022/08/06 13:47:44;;;;;;;2.67;2.47;;;;;;;;;;5045980;28;20063;-76
2022/08/06 13:50:10;;;;;;;2.97;2.70;;;;;;;;;;5059797;28;20064;-73
2022/08/06 13:52:35;;;;;;;3.22;3.03;;;;;;;;;;5058706;28;20028;-74
2022/08/06 13:55:01;;;;;;;2.90;2.70;;;;;;;;;;5056816;28;20035;-74
2022/08/06 13:57:28;;;;;;;2.90;2.70;;;;;;;;;;5055917;28;20032;-75
2022/08/06 13:59:54;;;;;;;2.60;2.40;;;;;;;;;;5045209;28;20052;-76
2022/08/06 14:02:19;;;;;;;2.80;2.60;;;;;;;;;;5036891;28;20120;-75
2022/08/06 14:04:44;;;;;;;2.40;2.20;;;;;;;;;;5049810;28;20403;-77
2022/08/06 14:07:10;;;;;;;3.08;2.70;;;;;;;;;;5045597;28;20066;-74
2022/08/06 14:09:35;;;;;;;2.78;2.58;;;;;;;;;;5039585;28;20025;-77
2022/08/06 14:12:02;;;;;;;2.83;2.40;;;;;;;;;;5041441;28;20366;-76
2022/08/06 14:14:28;;;;;;;2.90;2.67;;;;;;;;;;5038860;28;20024;-76
2022/08/06 14:16:56;;;;;;;2.80;2.60;;;;;;;;;;5022058;28;20352;-77
2022/08/06 14:19:21;;;;;;;2.73;2.53;;;;;;;;;;5037706;28;20031;-77
2022/08/06 14:21:46;;;;;;;2.83;2.50;;;;;;;;;;5038907;28;20317;-74
2022/08/06 14:24:12;;;;;;;2.75;2.55;;;;;;;;;;5042853;28;20032;-76
2022/08/06 14:26:37;;;;;;;3.10;2.45;;;;;;;;;;5037025;28;20036;-76
2022/08/06 14:29:03;;;;;;;2.83;2.63;;;;;;;;;;5038340;28;20045;-77
2022/08/06 14:31:30;;;;;;;2.83;2.63;;;;;;;;;;5044819;28;20323;-75
2022/08/06 14:33:56;;;;;;;3.05;2.85;;;;;;;;;;5043876;28;20036;-76
2022/08/06 14:36:21;;;;;;;4.30;2.95;;;;;;;;;;5021060;28;20033;-75
2022/08/06 14:38:46;;;;;;;3.65;2.70;;;;;;;;;;5041973;28;20355;-75
2022/08/06 14:46:40;;;;;;;2.47;2.30;;;;;;;;;;5056381;28;20085;-74
2022/08/06 14:49:05;;;;;;;3.10;2.60;;;;;;;;;;5040810;28;20037;-75
2022/08/06 14:51:30;;;;;;;2.83;2.63;;;;;;;;;;5049590;28;20029;-76
2022/08/06 14:53:56;;;;;;;3.13;2.92;;;;;;;;;;5055746;28;20054;-74
2022/08/06 14:56:21;;;;;;;2.92;2.65;;;;;;;;;;5049503;28;20111;-78
2022/08/06 14:58:46;;;;;;;4.45;2.92;;;;;;;;;;5052509;28;20028;-75